Delaware County Johnson Field
KMIE : now visible

Airfield :











YOU CAN JOIN US ON...

 
LOGIN :

Register | Disclaimer

   EN    FR    IT 

 









Legend :    VFR   Marginal VFR   IFR   Intensive IFR   Very Intensive IFR
Visi :
Ceiling :
>= 8 km
>= 3000ft
5 to 8 km
1000 to 3000 ft
1500m to 5 km
500 to 1000 ft
800 to 1500m
200 to 500 ft
< 800m
< 200 ft
Symbols :   Thunderstorms  Fog  Heavy snow  Heavy precipitations  Wind > 20 kt






- Airport Elevation : 937 ft
- IATA code : MIE


KMIE - Delaware County Johnson Field

CURRENT METAR :
  • 220753Z AUTO 30012KT 10SM OVC010 07/03 A2999 RMK AO2 SLP154 T00670033

EXPIRED METARs :
  • 220705Z AUTO 29010KT 10SM BKN011 OVC018 07/04 A2997 RMK AO2 T00670039
  • 220653Z AUTO 29009KT 10SM OVC017 07/04 A2997 RMK AO2 SLP145 T00670039
  • 220638Z AUTO 29010G18KT 10SM BKN015 OVC020 07/04 A2997 RMK AO2 T00670039
  • 220606Z AUTO 29014G20KT 10SM OVC010 07/04 A2996 RMK AO2 CIG 008V012 T00720039
  • 220553Z AUTO 29016G23KT 10SM OVC009 07/04 A2996 RMK AO2 CIG 008V012 SLP142 60000 T00720044 10128 20072 51012

TAF N/A



MET'MAP, your aeronautical weather chart ! - Copyright ORBIFLY December 2007 - Disclaimer

ORBIFLY MET'MAP TEAM :

Programming & Development : Alexandra Zaïnal
Concept & Development : Baudouin d'Aumeries
Co-Development & Prog : Marc-Olivier Méhu
Technical & hardware support : Manuel Goepfert

Contact : metmap@orbifly.com




SOURCES & CREDITS :

   NOAA       Earth
Advisory